createdAt,value
2022-11-28T00:02:32.940Z,5.08
2022-11-28T00:05:08.084Z,5.09
2022-11-28T00:07:41.706Z,5.12
2022-11-28T00:10:16.018Z,5.16
2022-11-28T00:12:49.568Z,5.20
2022-11-28T00:15:23.159Z,5.27
2022-11-28T00:17:56.461Z,5.31
2022-11-28T00:20:29.900Z,5.37
2022-11-28T00:23:03.212Z,5.40
2022-11-28T00:25:36.530Z,5.39
2022-11-28T00:28:10.220Z,5.36
2022-11-28T00:30:43.690Z,5.32
2022-11-28T00:33:17.222Z,5.33
2022-11-28T00:35:51.103Z,5.34
2022-11-28T00:38:25.056Z,5.33
2022-11-28T00:41:04.403Z,5.32
2022-11-28T00:43:38.217Z,5.35
2022-11-28T00:46:12.307Z,5.37
2022-11-28T00:48:46.198Z,5.38
2022-11-28T00:51:20.828Z,5.40
2022-11-28T00:53:55.771Z,5.44
2022-11-28T00:56:32.562Z,5.47
2022-11-28T00:59:06.282Z,5.52
2022-11-28T01:01:42.443Z,5.55
2022-11-28T01:04:17.774Z,5.59
2022-11-28T01:06:52.307Z,5.61
2022-11-28T01:09:27.045Z,5.62
2022-11-28T01:12:00.847Z,5.65
2022-11-28T01:14:35.042Z,5.67
2022-11-28T01:17:09.565Z,5.71
2022-11-28T01:19:42.894Z,5.76
2022-11-28T01:22:16.574Z,5.79
2022-11-28T01:24:50.281Z,5.80
2022-11-28T01:27:23.965Z,5.79
2022-11-28T01:29:57.635Z,5.80
2022-11-28T01:32:31.412Z,5.79
2022-11-28T01:35:05.133Z,5.78
2022-11-28T01:37:38.725Z,5.75
2022-11-28T01:40:14.766Z,5.71
2022-11-28T01:42:48.360Z,5.71
2022-11-28T01:45:25.264Z,5.73
2022-11-28T01:48:04.373Z,5.70
2022-11-28T01:50:39.128Z,5.67
2022-11-28T01:53:14.334Z,5.66
2022-11-28T01:55:56.542Z,5.67
2022-11-28T01:58:31.131Z,5.72
2022-11-28T02:01:05.170Z,5.73
2022-11-28T02:03:43.774Z,5.73
2022-11-28T02:06:19.890Z,5.72
2022-11-28T02:08:56.335Z,5.67
2022-11-28T02:11:47.731Z,5.63
2022-11-28T02:14:34.535Z,5.59
2022-11-28T02:17:24.974Z,5.51
2022-11-28T02:20:25.888Z,5.42
2022-11-28T02:23:06.404Z,5.39
2022-11-28T02:26:07.576Z,5.39
2022-11-28T02:29:19.635Z,5.36
2022-11-28T02:32:19.258Z,5.37
2022-11-28T02:34:59.602Z,5.39
2022-11-28T02:37:40.277Z,5.40
2022-11-28T02:40:23.930Z,5.42
2022-11-28T02:43:12.775Z,5.45
2022-11-28T02:45:52.447Z,5.49
2022-11-28T02:48:33.176Z,5.51
2022-11-28T02:51:13.183Z,5.53
2022-11-28T02:53:51.157Z,5.53
2022-11-28T02:56:26.951Z,5.52
2022-11-28T02:59:00.610Z,5.50
2022-11-28T03:01:39.594Z,5.50
2022-11-28T03:04:27.157Z,5.51
2022-11-28T03:07:12.089Z,5.53
2022-11-28T03:10:03.930Z,5.54
2022-11-28T03:12:47.948Z,5.48
2022-11-28T03:15:25.639Z,5.46
2022-11-28T03:18:09.526Z,5.45
2022-11-28T03:20:48.988Z,5.43
2022-11-28T03:23:28.686Z,5.40
2022-11-28T03:26:09.290Z,5.34
2022-11-28T03:28:47.127Z,5.31
2022-11-28T03:31:23.919Z,5.26
2022-11-28T03:34:00.972Z,5.22
2022-11-28T03:36:38.263Z,5.21
2022-11-28T03:39:15.679Z,5.22
2022-11-28T03:41:54.111Z,5.23
2022-11-28T03:44:28.682Z,5.26
2022-11-28T03:47:06.955Z,5.27
2022-11-28T03:49:43.685Z,5.29
2022-11-28T03:52:23.558Z,5.31
2022-11-28T03:55:02.446Z,5.32
2022-11-28T03:57:39.519Z,5.33
2022-11-28T04:00:15.529Z,5.37
2022-11-28T04:02:57.341Z,5.40
2022-11-28T04:05:39.020Z,5.43
2022-11-28T04:08:18.648Z,5.45
2022-11-28T04:10:58.373Z,5.47
2022-11-28T04:13:35.687Z,5.48
2022-11-28T04:16:14.889Z,5.47
2022-11-28T04:18:56.881Z,5.48
2022-11-28T04:21:36.060Z,5.48
2022-11-28T04:24:14.349Z,5.49
2022-11-28T04:26:53.648Z,5.53
2022-11-28T04:29:29.980Z,5.57
2022-11-28T04:32:05.795Z,5.58
2022-11-28T04:34:43.651Z,5.59
2022-11-28T04:37:19.405Z,5.59
2022-11-28T04:39:54.340Z,5.56
2022-11-28T04:42:34.448Z,5.52
2022-11-28T04:45:15.212Z,5.45
2022-11-28T04:47:49.410Z,5.37
2022-11-28T04:50:25.245Z,5.26
2022-11-28T04:53:02.329Z,5.20
2022-11-28T04:55:40.847Z,5.13
2022-11-28T04:58:17.940Z,5.09
2022-11-28T05:00:54.694Z,5.07
2022-11-28T05:03:31.192Z,5.07
2022-11-28T05:06:05.981Z,5.02
2022-11-28T05:08:39.705Z,4.96
2022-11-28T05:11:13.106Z,4.93
2022-11-28T05:13:46.627Z,4.90
2022-11-28T05:16:20.747Z,4.85
2022-11-28T05:18:54.830Z,4.83
2022-11-28T05:21:28.295Z,4.84
2022-11-28T05:24:02.113Z,4.87
2022-11-28T05:26:35.900Z,4.91
2022-11-28T05:29:09.579Z,4.97
2022-11-28T05:31:43.220Z,5.03
2022-11-28T05:34:16.990Z,5.07
2022-11-28T05:36:50.497Z,5.09
2022-11-28T05:39:23.676Z,5.10
2022-11-28T05:41:58.191Z,5.11
2022-11-28T05:44:32.016Z,5.12
2022-11-28T05:47:05.296Z,5.13
2022-11-28T05:49:38.855Z,5.16
2022-11-28T05:52:12.383Z,5.17
2022-11-28T05:54:46.149Z,5.14
2022-11-28T05:57:19.509Z,5.10
2022-11-28T05:59:53.385Z,5.05
2022-11-28T06:02:27.127Z,4.97
2022-11-28T06:05:16.208Z,4.87
2022-11-28T06:07:55.072Z,4.72
2022-11-28T06:10:28.513Z,4.63
2022-11-28T06:13:03.280Z,4.60
2022-11-28T06:15:38.499Z,4.56
2022-11-28T06:18:12.795Z,4.51
2022-11-28T06:20:46.282Z,4.49
2022-11-28T06:23:19.692Z,4.46
2022-11-28T06:25:53.392Z,4.49
2022-11-28T06:28:26.936Z,4.47
2022-11-28T06:31:00.968Z,4.49
2022-11-28T06:33:34.602Z,4.54
2022-11-28T06:36:09.968Z,4.53
2022-11-28T06:38:43.907Z,4.56
2022-11-28T06:41:19.500Z,4.62
2022-11-28T06:43:52.881Z,4.63
2022-11-28T06:46:26.588Z,4.64
2022-11-28T06:49:00.201Z,4.70
2022-11-28T06:51:34.139Z,4.76
2022-11-28T06:54:08.446Z,4.78
2022-11-28T06:56:43.049Z,4.74
2022-11-28T06:59:16.766Z,4.66
2022-11-28T07:01:50.247Z,4.55
2022-11-28T07:04:24.124Z,4.47
2022-11-28T07:06:57.476Z,4.43
2022-11-28T07:09:31.332Z,4.41
2022-11-28T07:12:04.881Z,4.39
2022-11-28T07:14:38.574Z,4.41
2022-11-28T07:17:11.597Z,4.42
2022-11-28T07:19:48.161Z,4.37
2022-11-28T07:22:24.403Z,4.41
2022-11-28T07:24:58.083Z,4.47
2022-11-28T07:27:32.179Z,4.44
2022-11-28T07:30:06.139Z,4.47
2022-11-28T07:32:42.599Z,4.55
2022-11-28T07:35:16.117Z,4.62
2022-11-28T07:37:50.132Z,4.72
2022-11-28T07:40:23.517Z,4.80
2022-11-28T07:42:57.096Z,4.89
2022-11-28T07:45:47.505Z,4.99
2022-11-28T07:48:25.367Z,5.06
2022-11-28T07:50:58.784Z,5.11
2022-11-28T07:53:32.455Z,5.19
2022-11-28T07:56:08.148Z,5.25
2022-11-28T07:58:41.748Z,5.30
2022-11-28T08:01:17.047Z,5.34
2022-11-28T08:03:51.176Z,5.38
2022-11-28T08:06:27.875Z,5.35
2022-11-28T08:09:03.849Z,5.32
2022-11-28T08:11:38.015Z,5.29
2022-11-28T08:14:11.407Z,5.32
2022-11-28T08:16:46.514Z,5.40
2022-11-28T08:19:24.581Z,5.41
2022-11-28T08:21:58.648Z,5.39
2022-11-28T08:24:32.435Z,5.34
2022-11-28T08:27:06.050Z,5.33
2022-11-28T08:29:39.969Z,5.40
2022-11-28T08:32:13.450Z,5.48
2022-11-28T08:34:47.269Z,5.47
2022-11-28T08:37:20.858Z,5.42
2022-11-28T08:39:54.507Z,5.41
2022-11-28T08:42:29.406Z,5.45
2022-11-28T08:45:03.263Z,5.44
2022-11-28T08:47:37.374Z,5.42
2022-11-28T08:50:11.972Z,5.47
2022-11-28T08:52:46.485Z,5.56
2022-11-28T08:55:25.116Z,5.55
2022-11-28T08:58:05.434Z,5.50
2022-11-28T09:00:39.176Z,5.47
2022-11-28T09:03:16.628Z,5.52
2022-11-28T09:05:50.765Z,5.48
2022-11-28T09:08:24.782Z,5.40
2022-11-28T09:10:58.779Z,5.46
2022-11-28T09:13:32.352Z,5.57
2022-11-28T09:16:07.468Z,5.59
2022-11-28T09:18:41.004Z,5.68
2022-11-28T09:21:16.749Z,5.85
2022-11-28T09:23:50.399Z,5.99
2022-11-28T09:26:26.189Z,6.13
2022-11-28T09:28:59.495Z,6.15
2022-11-28T09:31:33.079Z,6.14
2022-11-28T09:34:06.577Z,6.18
2022-11-28T09:36:40.046Z,6.36
2022-11-28T09:39:13.980Z,6.44
2022-11-28T09:41:57.336Z,6.49
2022-11-28T09:44:39.819Z,6.58
2022-11-28T09:47:20.549Z,6.62
2022-11-28T09:49:58.528Z,6.66
2022-11-28T09:52:40.498Z,6.78
2022-11-28T09:55:23.303Z,6.76
2022-11-28T09:57:58.054Z,6.74
2022-11-28T10:00:38.089Z,6.76
2022-11-28T10:03:35.348Z,6.79
2022-11-28T10:06:19.746Z,6.84
2022-11-28T10:09:18.250Z,6.88
2022-11-28T10:11:58.097Z,6.92
2022-11-28T10:14:57.264Z,6.87
2022-11-28T10:17:44.800Z,6.76
2022-11-28T10:20:23.909Z,6.70
2022-11-28T10:23:02.252Z,6.61
2022-11-28T10:25:40.581Z,6.53
2022-11-28T10:28:21.616Z,6.45
2022-11-28T10:31:02.467Z,6.33
2022-11-28T10:33:43.567Z,6.32
2022-11-28T10:36:23.363Z,6.29
2022-11-28T10:38:56.856Z,6.15
2022-11-28T10:41:36.460Z,6.01
2022-11-28T10:44:21.821Z,5.91
2022-11-28T10:47:05.989Z,5.91
2022-11-28T10:49:51.092Z,5.91
2022-11-28T10:52:29.279Z,5.86
2022-11-28T10:55:23.309Z,5.91
2022-11-28T10:58:04.842Z,6.02
2022-11-28T11:00:39.887Z,6.12
2022-11-28T11:03:18.936Z,6.10
2022-11-28T11:05:52.651Z,6.05
2022-11-28T11:08:27.872Z,5.98
2022-11-28T11:11:07.168Z,6.00
2022-11-28T11:14:00.379Z,6.09
2022-11-28T11:16:50.716Z,6.14
2022-11-28T11:19:30.376Z,6.06
2022-11-28T11:22:08.124Z,6.05
2022-11-28T11:24:41.485Z,6.10
2022-11-28T11:27:23.005Z,6.18
2022-11-28T11:29:57.660Z,6.20
2022-11-28T11:32:32.433Z,6.15
2022-11-28T11:35:07.272Z,6.13
2022-11-28T11:37:41.729Z,6.05
2022-11-28T11:40:27.064Z,6.00
2022-11-28T11:43:02.439Z,6.05
2022-11-28T11:45:44.352Z,6.08
2022-11-28T11:48:36.337Z,6.05
2022-11-28T11:51:22.618Z,5.90
2022-11-28T11:54:07.225Z,5.79
2022-11-28T11:56:43.924Z,5.74
2022-11-28T11:59:22.250Z,5.79
2022-11-28T12:02:02.482Z,5.86
2022-11-28T12:04:47.199Z,5.97
2022-11-28T12:07:30.614Z,6.04
2022-11-28T12:10:06.136Z,6.05
2022-11-28T12:12:42.435Z,5.93
2022-11-28T12:15:30.138Z,5.85
2022-11-28T12:18:22.260Z,5.86
2022-11-28T12:21:09.957Z,5.93
2022-11-28T12:24:08.782Z,6.04
2022-11-28T12:26:49.935Z,6.09
2022-11-28T12:29:40.184Z,6.05
2022-11-28T12:32:24.265Z,6.03
2022-11-28T12:35:09.361Z,5.92
2022-11-28T12:41:00.314Z,5.73
2022-11-28T12:43:47.706Z,5.73
2022-11-28T12:46:30.314Z,5.66
2022-11-28T12:49:17.829Z,5.55
2022-11-28T12:52:14.926Z,5.55
2022-11-28T12:55:04.786Z,5.59
2022-11-28T12:57:45.335Z,5.64
2022-11-28T13:00:22.902Z,5.72
2022-11-28T13:03:21.393Z,5.74
2022-11-28T13:06:07.744Z,5.73
2022-11-28T13:09:03.082Z,5.69
2022-11-28T13:11:55.856Z,5.68
2022-11-28T13:14:40.198Z,5.67
2022-11-28T13:17:27.546Z,5.59
2022-11-28T13:20:09.673Z,5.55
2022-11-28T13:22:57.275Z,5.55
2022-11-28T13:25:39.359Z,5.54
2022-11-28T13:28:20.708Z,5.58
2022-11-28T13:30:58.681Z,5.59
2022-11-28T13:33:51.388Z,5.57
2022-11-28T13:39:39.750Z,5.51
2022-11-28T13:45:31.767Z,5.51
2022-11-28T13:51:38.801Z,5.54
2022-11-28T13:54:48.439Z,5.55
2022-11-28T13:57:32.806Z,5.52
2022-11-28T14:00:23.725Z,5.41
2022-11-28T14:03:00.382Z,5.32
2022-11-28T14:05:37.528Z,5.31
2022-11-28T14:08:27.681Z,5.29
2022-11-28T14:11:27.629Z,5.27
2022-11-28T14:14:16.025Z,5.29
2022-11-28T14:17:03.489Z,5.30
2022-11-28T14:19:55.698Z,5.28
2022-11-28T14:22:42.985Z,5.23
2022-11-28T14:25:22.190Z,5.22
2022-11-28T14:27:58.939Z,5.25
2022-11-28T14:30:38.840Z,5.26
2022-11-28T14:33:22.017Z,5.27
2022-11-28T14:36:25.380Z,5.32
2022-11-28T14:39:37.526Z,5.42
2022-11-28T14:42:59.726Z,5.45
2022-11-28T14:45:46.462Z,5.44
2022-11-28T14:48:32.438Z,5.46
2022-11-28T14:51:07.475Z,5.47
2022-11-28T14:53:47.109Z,5.45
2022-11-28T14:56:30.135Z,5.42
2022-11-28T14:59:05.160Z,5.43
2022-11-28T15:01:54.396Z,5.39
2022-11-28T15:04:51.668Z,5.37
2022-11-28T15:07:36.687Z,5.33
2022-11-28T15:10:20.301Z,5.33
2022-11-28T15:13:07.550Z,5.30
2022-11-28T15:15:51.312Z,5.28
2022-11-28T15:18:26.758Z,5.30
2022-11-28T15:21:06.238Z,5.30
2022-11-28T15:23:40.757Z,5.30
2022-11-28T15:26:23.462Z,5.36
2022-11-28T15:29:20.792Z,5.39
2022-11-28T15:31:57.462Z,5.34
2022-11-28T15:34:33.768Z,5.30
2022-11-28T15:37:18.120Z,5.27
2022-11-28T15:39:52.938Z,5.28
2022-11-28T15:42:31.140Z,5.31
2022-11-28T15:45:10.618Z,5.37
2022-11-28T15:47:47.030Z,5.43
2022-11-28T15:50:25.508Z,5.44
2022-11-28T15:53:00.952Z,5.44
2022-11-28T15:55:38.294Z,5.44
2022-11-28T15:58:20.394Z,5.45
2022-11-28T16:01:00.677Z,5.43
2022-11-28T16:03:37.332Z,5.40
2022-11-28T16:06:11.652Z,5.36
2022-11-28T16:08:52.594Z,5.37
2022-11-28T16:11:29.465Z,5.34
2022-11-28T16:14:09.170Z,5.31
2022-11-28T16:16:44.116Z,5.31
2022-11-28T16:19:27.476Z,5.35
2022-11-28T16:22:03.865Z,5.39
2022-11-28T16:24:48.275Z,5.36
2022-11-28T16:27:35.858Z,5.34
2022-11-28T16:30:30.566Z,5.35
2022-11-28T16:33:05.305Z,5.36
2022-11-28T16:35:41.957Z,5.35
2022-11-28T16:38:20.852Z,5.39
2022-11-28T16:40:54.292Z,5.42
2022-11-28T16:43:40.485Z,5.41
2022-11-28T16:46:24.043Z,5.37
2022-11-28T16:49:00.430Z,5.37
2022-11-28T16:51:42.059Z,5.35
2022-11-28T16:54:35.403Z,5.31
2022-11-28T16:57:16.277Z,5.32
2022-11-28T16:59:53.903Z,5.36
2022-11-28T17:02:28.819Z,5.31
2022-11-28T17:05:03.794Z,5.32
2022-11-28T17:07:38.823Z,5.31
2022-11-28T17:10:15.071Z,5.24
2022-11-28T17:12:50.828Z,5.21
2022-11-28T17:15:25.905Z,5.22
2022-11-28T17:18:01.027Z,5.22
2022-11-28T17:20:36.125Z,5.19
2022-11-28T17:23:11.954Z,5.14
2022-11-28T17:25:46.160Z,5.08
2022-11-28T17:28:23.198Z,5.02
2022-11-28T17:31:00.760Z,4.97
2022-11-28T17:33:43.121Z,4.91
2022-11-28T17:36:20.463Z,4.88
2022-11-28T17:39:04.840Z,4.87
2022-11-28T17:41:41.794Z,4.81
2022-11-28T17:44:20.931Z,4.75
2022-11-28T17:46:57.396Z,4.72
2022-11-28T17:49:33.366Z,4.71
2022-11-28T17:52:09.259Z,4.71
2022-11-28T17:54:43.759Z,4.64
2022-11-28T17:57:21.465Z,4.58
2022-11-28T17:59:57.393Z,4.57
2022-11-28T18:02:31.820Z,4.60
2022-11-28T18:05:07.593Z,4.62
2022-11-28T18:07:42.025Z,4.61
2022-11-28T18:10:18.744Z,4.59
2022-11-28T18:12:54.235Z,4.56
2022-11-28T18:15:29.441Z,4.55
2022-11-28T18:18:05.825Z,4.51
2022-11-28T18:20:42.357Z,4.46
2022-11-28T18:23:18.042Z,4.43
2022-11-28T18:25:53.272Z,4.40
2022-11-28T18:28:31.722Z,4.39
2022-11-28T18:31:14.193Z,4.35
2022-11-28T18:33:49.946Z,4.25
2022-11-28T18:36:26.677Z,4.23
2022-11-28T18:39:05.791Z,4.17
2022-11-28T18:41:40.606Z,4.16
2022-11-28T18:44:15.647Z,4.22
2022-11-28T18:46:50.355Z,4.25
2022-11-28T18:49:25.792Z,4.24
2022-11-28T18:52:01.385Z,4.20
2022-11-28T18:54:39.491Z,4.17
2022-11-28T18:57:14.049Z,4.13
2022-11-28T18:59:55.272Z,4.03
2022-11-28T19:02:30.460Z,3.97
2022-11-28T19:05:05.370Z,3.91
2022-11-28T19:07:42.834Z,3.89
2022-11-28T19:10:18.801Z,3.84
2022-11-28T19:12:54.107Z,3.76
2022-11-28T19:15:27.987Z,3.69
2022-11-28T19:18:02.267Z,3.61
2022-11-28T19:20:36.551Z,3.58
2022-11-28T19:23:11.908Z,3.54
2022-11-28T19:25:50.197Z,3.57
2022-11-28T19:28:27.209Z,3.52
2022-11-28T19:31:10.069Z,3.43
2022-11-28T19:33:50.375Z,3.36
2022-11-28T19:36:25.352Z,3.36
2022-11-28T19:39:01.758Z,3.42
2022-11-28T19:41:37.923Z,3.45
2022-11-28T19:44:17.261Z,3.44
2022-11-28T19:46:54.358Z,3.40
2022-11-28T19:49:32.401Z,3.32
2022-11-28T19:52:08.387Z,3.29
2022-11-28T19:54:47.084Z,3.31
2022-11-28T19:57:22.391Z,3.38
2022-11-28T19:59:59.091Z,3.40
2022-11-28T20:02:34.873Z,3.44
2022-11-28T20:05:11.848Z,3.45
2022-11-28T20:07:48.431Z,3.46
2022-11-28T20:10:24.270Z,3.45
2022-11-28T20:12:59.773Z,3.42
2022-11-28T20:15:36.709Z,3.41
2022-11-28T20:18:12.039Z,3.42
2022-11-28T20:20:46.947Z,3.47
2022-11-28T20:23:21.590Z,3.47
2022-11-28T20:25:56.716Z,3.49
2022-11-28T20:28:32.638Z,3.48
2022-11-28T20:31:09.161Z,3.44
2022-11-28T20:33:45.368Z,3.46
2022-11-28T20:36:21.189Z,3.44
2022-11-28T20:38:57.521Z,3.36
2022-11-28T20:41:32.589Z,3.35
2022-11-28T20:44:08.330Z,3.37
2022-11-28T20:46:45.081Z,3.39
2022-11-28T20:49:20.033Z,3.44
2022-11-28T20:51:55.111Z,3.44
2022-11-28T20:54:31.597Z,3.42
2022-11-28T20:57:21.232Z,3.41
2022-11-28T20:59:58.901Z,3.42
2022-11-28T21:02:33.974Z,3.41
2022-11-28T21:05:09.809Z,3.36
2022-11-28T21:07:44.494Z,3.34
2022-11-28T21:10:19.203Z,3.28
2022-11-28T21:12:53.314Z,3.25
2022-11-28T21:15:27.197Z,3.21
2022-11-28T21:18:00.582Z,3.19
2022-11-28T21:20:35.471Z,3.19
2022-11-28T21:23:09.786Z,3.17
2022-11-28T21:25:44.857Z,3.18
2022-11-28T21:28:19.347Z,3.18
2022-11-28T21:30:53.197Z,3.16
2022-11-28T21:33:27.100Z,3.14
2022-11-28T21:36:03.417Z,3.18
2022-11-28T21:38:37.775Z,3.23
2022-11-28T21:41:12.065Z,3.23
2022-11-28T21:43:45.567Z,3.23
2022-11-28T21:46:19.527Z,3.25
2022-11-28T21:48:54.017Z,3.27
2022-11-28T21:51:29.072Z,3.29
2022-11-28T21:54:03.075Z,3.33
2022-11-28T21:56:37.680Z,3.39
2022-11-28T21:59:11.313Z,3.41
2022-11-28T22:01:46.881Z,3.44
2022-11-28T22:04:22.377Z,3.46
2022-11-28T22:06:55.797Z,3.45
2022-11-28T22:09:29.465Z,3.45
2022-11-28T22:12:05.628Z,3.43
2022-11-28T22:14:39.919Z,3.40
2022-11-28T22:17:13.797Z,3.38
2022-11-28T22:19:47.440Z,3.35
2022-11-28T22:22:21.399Z,3.33
2022-11-28T22:24:55.140Z,3.30
2022-11-28T22:27:32.440Z,3.31
2022-11-28T22:30:06.188Z,3.32
2022-11-28T22:32:39.749Z,3.35
2022-11-28T22:35:13.974Z,3.32
2022-11-28T22:37:47.953Z,3.30
2022-11-28T22:40:21.883Z,3.24
2022-11-28T22:42:59.317Z,3.19
2022-11-28T22:45:33.656Z,3.20
2022-11-28T22:48:08.279Z,3.18
2022-11-28T22:50:43.762Z,3.14
2022-11-28T22:53:17.442Z,3.19
2022-11-28T22:55:51.268Z,3.27
2022-11-28T22:58:24.501Z,3.34
2022-11-28T23:00:58.351Z,3.36
2022-11-28T23:03:32.023Z,3.31
2022-11-28T23:06:09.893Z,3.32
2022-11-28T23:08:43.965Z,3.34
2022-11-28T23:11:19.592Z,3.36
2022-11-28T23:13:54.309Z,3.38
2022-11-28T23:16:30.402Z,3.42
2022-11-28T23:19:06.366Z,3.46
2022-11-28T23:21:42.770Z,3.43
2022-11-28T23:24:19.037Z,3.42
2022-11-28T23:26:53.917Z,3.42
2022-11-28T23:29:27.586Z,3.46
2022-11-28T23:32:01.941Z,3.47
2022-11-28T23:34:36.577Z,3.50
2022-11-28T23:37:10.507Z,3.50
2022-11-28T23:39:44.382Z,3.53
2022-11-28T23:42:20.073Z,3.54
2022-11-28T23:44:54.020Z,3.50
2022-11-28T23:47:27.442Z,3.46
2022-11-28T23:50:01.076Z,3.42
2022-11-28T23:52:35.319Z,3.40
2022-11-28T23:55:10.345Z,3.44
2022-11-28T23:57:43.956Z,3.46
